Time;durP1;ratioP1;P1;durP2;ratioP2;P2;SDS_P1;SDS_P2;PMS_P1;PMS_P2;Temp;Humidity;BMP_temperature;BMP_pressure;BME280_temperature;BME280_humidity;BME280_pressure;Samples;Min_cycle;Max_cycle;Signal;HPM_P1;HPM_P2
2021/12/08 00:10:00;;;;;;;25.00;12.98;;;1.20;99.90;;;;;;20588340;28;20105;-77
2021/12/08 00:20:04;;;;;;;26.75;11.73;;;1.10;99.90;;;;;;20587244;28;20043;-76
2021/12/08 00:30:05;;;;;;;33.30;12.00;;;1.20;99.90;;;;;;20586730;28;20121;-77
2021/12/08 00:40:09;;;;;;;20.77;11.48;;;1.20;99.90;;;;;;20585723;28;20039;-76
2021/12/08 00:50:11;;;;;;;32.10;12.10;;;1.20;99.90;;;;;;20585290;28;20515;-76
2021/12/08 01:00:20;;;;;;;29.45;14.15;;;1.30;99.90;;;;;;20584750;28;20489;-77
2021/12/08 01:10:25;;;;;;;30.48;15.23;;;1.20;99.90;;;;;;20584093;28;20030;-77
2021/12/08 01:20:26;;;;;;;28.02;13.73;;;1.10;99.90;;;;;;20583704;28;20038;-77
2021/12/08 01:30:27;;;;;;;39.70;17.70;;;1.10;99.90;;;;;;20586600;28;20041;-77
2021/12/08 01:40:28;;;;;;;36.70;15.13;;;1.10;99.90;;;;;;20582948;28;20026;-77
2021/12/08 01:50:29;;;;;;;32.75;16.88;;;1.10;99.90;;;;;;20581755;28;20126;-76
2021/12/08 02:00:35;;;;;;;26.92;13.45;;;1.00;99.90;;;;;;20597633;28;20409;-77
2021/12/08 02:10:38;;;;;;;36.53;17.67;;;1.10;99.90;;;;;;20597451;28;20132;-77
2021/12/08 02:20:41;;;;;;;34.53;17.48;;;1.10;99.90;;;;;;20596445;28;20022;-77
2021/12/08 02:30:54;;;;;;;33.30;17.02;;;1.00;99.90;;;;;;20595813;28;20541;-76
2021/12/08 02:51:14;;;;;;;41.22;18.20;;;1.10;99.90;;;;;;20594365;28;20054;-75
2021/12/08 03:01:16;;;;;;;42.25;17.40;;;1.10;99.90;;;;;;20593329;28;20037;-77
2021/12/08 03:11:17;;;;;;;45.72;18.05;;;1.10;99.90;;;;;;20592658;28;20510;-77
2021/12/08 03:21:20;;;;;;;57.17;22.30;;;1.20;99.90;;;;;;20593863;28;20042;-77
2021/12/08 03:31:28;;;;;;;49.75;18.95;;;1.40;99.90;;;;;;20593374;28;20380;-77
2021/12/08 03:41:32;;;;;;;43.65;17.63;;;1.50;99.90;;;;;;20589363;28;20039;-76
2021/12/08 03:51:33;;;;;;;31.70;13.70;;;1.60;99.90;;;;;;20587677;28;20039;-75
2021/12/08 04:01:35;;;;;;;38.03;16.77;;;1.70;99.90;;;;;;20589810;28;20102;-76
2021/12/08 04:11:36;;;;;;;36.67;17.35;;;1.70;99.90;;;;;;20651901;28;20513;-77
2021/12/08 04:21:38;;;;;;;31.57;14.57;;;1.70;99.90;;;;;;20629147;28;1166346;-77
2021/12/08 04:31:41;;;;;;;29.20;13.77;;;1.70;99.90;;;;;;20671485;28;20069;-77
2021/12/08 04:41:47;;;;;;;36.17;16.00;;;1.70;99.90;;;;;;20671492;28;20378;-76
2021/12/08 04:52:03;;;;;;;33.83;15.27;;;1.80;99.90;;;;;;20665980;28;20030;-76
2021/12/08 05:12:17;;;;;;;35.80;16.40;;;1.90;99.90;;;;;;20662872;28;20026;-74
2021/12/08 05:22:24;;;;;;;35.72;14.70;;;2.00;99.90;;;;;;20660798;28;20032;-76
2021/12/08 05:32:25;;;;;;;42.58;18.30;;;2.00;99.90;;;;;;20665434;28;20030;-76
2021/12/08 05:42:31;;;;;;;38.17;18.15;;;2.00;99.90;;;;;;20660523;28;20038;-76
2021/12/08 05:52:32;;;;;;;36.58;17.75;;;2.00;99.90;;;;;;20659318;28;20133;-75
2021/12/08 06:02:36;;;;;;;39.60;18.48;;;1.90;99.90;;;;;;20657452;28;20054;-76
2021/12/08 06:12:37;;;;;;;45.35;17.60;;;1.90;99.90;;;;;;20660674;28;20405;-76
2021/12/08 06:22:40;;;;;;;31.92;15.73;;;1.90;99.90;;;;;;20661120;28;20030;-77
2021/12/08 06:32:41;;;;;;;33.25;16.33;;;2.00;99.90;;;;;;20662063;28;20042;-78
2021/12/08 06:42:45;;;;;;;32.92;16.33;;;2.00;99.90;;;;;;20671307;28;20089;-77
2021/12/08 06:52:46;;;;;;;32.00;15.90;;;2.00;99.90;;;;;;20676225;28;20077;-77
2021/12/08 07:03:30;;;;;;;37.85;17.83;;;1.90;99.90;;;;;;20675808;28;20034;-77
2021/12/08 07:13:10;;;;;;;;;;;1.90;99.90;;;;;;20623916;28;20132;-78
2021/12/08 07:23:22;;;;;;;33.63;14.98;;;1.80;99.90;;;;;;20629799;28;19918;-78
2021/12/08 07:33:23;;;;;;;35.50;16.98;;;1.90;99.90;;;;;;20674564;28;20034;-77
2021/12/08 07:43:26;;;;;;;46.78;18.50;;;2.00;99.90;;;;;;20673094;28;20094;-78
2021/12/08 07:53:29;;;;;;;55.20;20.48;;;2.10;99.90;;;;;;20676040;28;20030;-77
2021/12/08 08:03:32;;;;;;;45.13;18.20;;;2.10;99.90;;;;;;20683339;28;20034;-79
2021/12/08 08:13:34;;;;;;;40.72;18.48;;;2.30;99.90;;;;;;20683275;28;20034;-79
2021/12/08 08:23:36;;;;;;;32.58;15.40;;;2.30;99.90;;;;;;20684417;28;20099;-80
2021/12/08 08:33:38;;;;;;;29.23;14.82;;;2.40;99.90;;;;;;20687852;28;20050;-78
2021/12/08 08:43:40;;;;;;;29.25;11.63;;;2.50;99.90;;;;;;20684183;28;20031;-79
2021/12/08 08:53:43;;;;;;;26.40;11.98;;;2.40;99.90;;;;;;20682037;28;20022;-79
2021/12/08 09:03:49;;;;;;;30.27;14.27;;;2.50;99.90;;;;;;20680730;28;20505;-79
2021/12/08 09:14:00;;;;;;;25.13;12.63;;;2.60;99.90;;;;;;20680595;28;20043;-79
2021/12/08 09:24:26;;;;;;;29.53;13.00;;;2.60;99.90;;;;;;20678101;28;20132;-78
2021/12/08 09:34:32;;;;;;;31.75;12.68;;;2.60;99.90;;;;;;20654149;28;20040;-77
2021/12/08 09:44:46;;;;;;;26.10;12.95;;;2.70;99.90;;;;;;20619958;28;20114;-78
2021/12/08 09:54:47;;;;;;;59.58;24.48;;;2.70;99.90;;;;;;20667164;28;20042;-79
2021/12/08 10:04:48;;;;;;;27.55;13.52;;;2.80;99.90;;;;;;20672336;28;20023;-78
2021/12/08 10:14:50;;;;;;;222.55;63.65;;;2.90;99.90;;;;;;20670295;28;20037;-78
2021/12/08 10:25:13;;;;;;;38.72;16.75;;;3.00;99.90;;;;;;20678917;28;20038;-77
2021/12/08 10:35:42;;;;;;;41.45;20.40;;;3.00;99.90;;;;;;20677921;28;20433;-78
2021/12/08 10:45:43;;;;;;;29.98;15.30;;;3.00;99.90;;;;;;20677467;28;20030;-76
2021/12/08 10:55:51;;;;;;;33.53;17.55;;;3.00;99.90;;;;;;20676562;28;20084;-76
2021/12/08 11:06:04;;;;;;;31.63;16.88;;;3.20;99.90;;;;;;20673712;28;20109;-77
2021/12/08 11:16:23;;;;;;;39.40;24.80;;;3.20;99.90;;;;;;20672981;28;20030;-77
2021/12/08 11:26:29;;;;;;;10.93;6.90;;;3.40;99.90;;;;;;20673214;28;20077;-76
2021/12/08 11:36:35;;;;;;;50.25;16.27;;;3.40;99.90;;;;;;20671223;28;20106;-78
2021/12/08 11:47:03;;;;;;;484.42;184.23;;;3.30;99.90;;;;;;20670742;28;20062;-77
2021/12/08 11:57:20;;;;;;;16.40;10.88;;;3.30;99.90;;;;;;20632821;28;20050;-77
2021/12/08 12:07:21;;;;;;;7.95;5.45;;;3.30;99.90;;;;;;20588911;28;20592;-77
2021/12/08 12:17:23;;;;;;;10.20;6.38;;;3.10;99.90;;;;;;20600563;28;20034;-78
2021/12/08 12:27:36;;;;;;;9.55;5.30;;;2.90;99.90;;;;;;20596349;28;20042;-80
2021/12/08 12:37:38;;;;;;;92.47;38.28;;;3.00;99.90;;;;;;20600657;28;20479;-77
2021/12/08 12:47:40;;;;;;;23.92;9.88;;;2.90;99.90;;;;;;20608778;28;20042;-81
2021/12/08 12:57:59;;;;;;;313.65;121.13;;;2.70;99.90;;;;;;20602322;28;20035;-79
2021/12/08 13:08:00;;;;;;;21.90;14.85;;;2.90;99.90;;;;;;20600929;28;20529;-81
2021/12/08 13:18:04;;;;;;;;;;;2.80;99.90;;;;;;20601978;28;20042;-82
2021/12/08 13:28:14;;;;;;;134.05;56.60;;;3.20;99.90;;;;;;20605243;28;19949;-80
2021/12/08 13:38:14;;;;;;;12.13;8.48;;;3.40;99.90;;;;;;20599185;28;20043;-77
2021/12/08 13:48:15;;;;;;;;;;;3.30;99.90;;;;;;20596863;28;20038;-78
2021/12/08 13:58:19;;;;;;;37.20;19.85;;;3.00;99.90;;;;;;20610626;28;19910;-78
2021/12/08 14:08:35;;;;;;;28.13;15.20;;;2.90;99.90;;;;;;20608283;28;20520;-77
2021/12/08 14:18:37;;;;;;;19.88;16.73;;;3.00;99.90;;;;;;20591661;28;20038;-75
2021/12/08 14:28:49;;;;;;;21.45;14.77;;;3.10;99.90;;;;;;20590148;28;20027;-79
2021/12/08 14:38:55;;;;;;;27.00;17.60;;;2.90;99.90;;;;;;20590580;28;20033;-78
2021/12/08 14:49:05;;;;;;;24.08;13.70;;;3.00;99.90;;;;;;20589662;28;20034;-78
2021/12/08 14:59:06;;;;;;;13.65;8.32;;;2.90;99.90;;;;;;20589692;28;20140;-79
2021/12/08 15:09:13;;;;;;;14.77;8.80;;;2.90;99.90;;;;;;20615801;28;20101;-79
2021/12/08 15:19:14;;;;;;;12.35;7.15;;;2.80;99.90;;;;;;20616636;28;20409;-79
2021/12/08 15:29:25;;;;;;;75.72;32.45;;;2.70;99.90;;;;;;20616136;28;20031;-78
2021/12/08 15:39:28;;;;;;;16.63;8.90;;;2.70;99.90;;;;;;20614894;28;20031;-78
2021/12/08 15:49:34;;;;;;;18.25;12.23;;;2.70;99.90;;;;;;20614256;28;20038;-78
2021/12/08 15:59:43;;;;;;;14.25;8.05;;;2.70;99.90;;;;;;20611343;28;20041;-77
2021/12/08 16:09:44;;;;;;;86.95;33.28;;;2.40;99.90;;;;;;20611448;28;20476;-78
2021/12/08 16:20:03;;;;;;;21.75;9.55;;;2.30;99.90;;;;;;20611623;28;20046;-77
2021/12/08 16:30:07;;;;;;;30.95;14.93;;;2.10;99.90;;;;;;20609926;28;20092;-78
2021/12/08 16:40:23;;;;;;;32.13;14.43;;;2.10;99.90;;;;;;20618677;28;20051;-77
2021/12/08 16:50:27;;;;;;;24.40;11.23;;;2.30;99.90;;;;;;20623530;28;20037;-77
2021/12/08 17:00:34;;;;;;;18.95;9.10;;;2.30;99.90;;;;;;20623327;28;20049;-77
2021/12/08 17:10:38;;;;;;;17.08;8.57;;;2.30;99.90;;;;;;20620648;28;20085;-79
2021/12/08 17:20:42;;;;;;;18.80;9.27;;;2.40;99.90;;;;;;20621873;28;20057;-77
2021/12/08 17:30:43;;;;;;;21.35;10.18;;;2.40;99.90;;;;;;20605864;28;20074;-79
2021/12/08 17:40:43;;;;;;;;;;;2.50;99.90;;;;;;20614670;28;20454;-79
2021/12/08 17:50:44;;;;;;;29.65;15.07;;;2.50;99.90;;;;;;20602276;28;20881;-78
2021/12/08 18:00:49;;;;;;;45.70;16.20;;;2.50;99.90;;;;;;20586041;28;20125;-77
2021/12/08 18:10:51;;;;;;;30.95;14.82;;;2.40;99.90;;;;;;20584637;28;20026;-76
2021/12/08 18:20:52;;;;;;;20.65;11.20;;;2.30;99.90;;;;;;20584005;28;20035;-76
2021/12/08 18:30:54;;;;;;;18.35;9.27;;;2.30;99.90;;;;;;20583563;28;20374;-76
2021/12/08 18:40:57;;;;;;;24.65;11.38;;;2.40;99.90;;;;;;20596772;28;20089;-76
2021/12/08 18:50:58;;;;;;;20.40;10.77;;;2.40;99.90;;;;;;20598876;28;20030;-76
2021/12/08 19:01:04;;;;;;;21.52;10.88;;;2.40;99.90;;;;;;20599452;28;20445;-77
2021/12/08 19:11:06;;;;;;;20.80;11.35;;;2.30;99.90;;;;;;20596692;28;20034;-77
2021/12/08 19:21:09;;;;;;;21.80;10.68;;;2.30;99.90;;;;;;20601548;28;20066;-77
2021/12/08 19:31:11;;;;;;;27.35;13.07;;;2.20;99.90;;;;;;20593432;28;20118;-76
2021/12/08 19:41:12;;;;;;;19.33;9.27;;;2.40;99.90;;;;;;20594324;28;20061;-75
2021/12/08 19:51:14;;;;;;;20.50;10.50;;;2.40;99.90;;;;;;20593246;28;20027;-76
2021/12/08 20:01:22;;;;;;;19.90;10.18;;;2.30;99.90;;;;;;20591981;28;20036;-76
2021/12/08 20:11:22;;;;;;;24.17;10.75;;;2.20;99.90;;;;;;20590659;28;20117;-77
2021/12/08 20:21:23;;;;;;;25.05;11.13;;;2.20;99.90;;;;;;20590598;28;20030;-76
2021/12/08 20:31:27;;;;;;;26.65;12.65;;;2.10;99.90;;;;;;20589945;28;20061;-76
2021/12/08 20:41:29;;;;;;;31.45;13.57;;;2.10;99.90;;;;;;20589645;28;20039;-76
2021/12/08 20:51:31;;;;;;;35.30;15.00;;;1.90;99.90;;;;;;20588728;28;20110;-77
2021/12/08 21:01:51;;;;;;;31.58;15.07;;;2.00;99.90;;;;;;20588989;28;20034;-76
2021/12/08 21:11:53;;;;;;;34.08;15.10;;;1.90;99.90;;;;;;20591867;28;20612;-77
2021/12/08 21:21:54;;;;;;;31.05;13.85;;;1.90;99.90;;;;;;20640291;28;20029;-78
2021/12/08 21:31:55;;;;;;;31.65;14.13;;;2.00;99.90;;;;;;20633576;28;20031;-77
2021/12/08 21:42:03;;;;;;;27.92;12.90;;;1.90;99.90;;;;;;20608078;28;20022;-77
2021/12/08 21:52:04;;;;;;;30.55;14.52;;;1.90;99.90;;;;;;20612607;28;20105;-76
2021/12/08 22:02:05;;;;;;;32.28;14.70;;;1.80;99.90;;;;;;20626012;28;20023;-77
2021/12/08 22:12:10;;;;;;;32.78;14.95;;;1.80;99.90;;;;;;20653004;28;20457;-77
2021/12/08 22:22:11;;;;;;;30.55;13.70;;;1.80;99.90;;;;;;20677805;28;20031;-75
2021/12/08 22:32:12;;;;;;;25.67;12.40;;;1.80;99.90;;;;;;20677144;28;20058;-76
2021/12/08 22:42:14;;;;;;;30.95;14.93;;;2.00;99.90;;;;;;20674600;28;20165;-76
2021/12/08 22:52:16;;;;;;;29.23;13.85;;;2.10;99.90;;;;;;20674213;28;20038;-77
2021/12/08 23:02:17;;;;;;;32.65;15.38;;;2.10;99.90;;;;;;20674820;28;20034;-76
2021/12/08 23:12:18;;;;;;;28.88;13.70;;;2.10;99.90;;;;;;20673903;28;20034;-78
2021/12/08 23:22:19;;;;;;;31.20;14.43;;;2.10;99.90;;;;;;20675087;28;20036;-79
2021/12/08 23:32:20;;;;;;;47.25;20.00;;;2.10;99.90;;;;;;20677847;28;20035;-79
2021/12/08 23:42:21;;;;;;;50.00;19.30;;;2.00;99.90;;;;;;20677277;28;20110;-79
2021/12/08 23:52:22;;;;;;;66.50;24.92;;;2.10;99.90;;;;;;20676373;28;20034;-79
